Time;durP1;ratioP1;P1;durP2;ratioP2;P2;SDS_P1;SDS_P2;PMS_P1;PMS_P2;Temp;Humidity;BMP_temperature;BMP_pressure;BME280_temperature;BME280_humidity;BME280_pressure;Samples;Min_cycle;Max_cycle;Signal;HPM_P1;HPM_P2
2022/09/16 00:06:33;;;;;;;3.17;0.50;;;;;;;14.95;83.76;98980.34;6199166;22;19997;-80
2022/09/16 04:18:53;;;;;;;1.48;0.20;;;;;;;12.69;87.42;98983.25;6224301;23;20074;-85
2022/09/16 04:34:14;;;;;;;0.65;0.15;;;;;;;12.60;88.19;98991.00;6236339;23;20005;-83
2022/09/16 04:36:40;;;;;;;0.20;0.20;;;;;;;12.63;88.55;98986.97;6241886;23;20005;-85
2022/09/16 04:39:08;;;;;;;0.25;0.10;;;;;;;13.72;89.01;99155.81;6216678;23;20056;-84
2022/09/16 04:41:34;;;;;;;1.85;0.20;;;;;;;12.44;88.08;98967.66;6215736;23;20033;-84
2022/09/16 04:43:59;;;;;;;0.88;0.45;;;;;;;13.44;88.33;99132.63;6216246;23;20038;-83
2022/09/16 04:46:27;;;;;;;0.28;0.10;;;;;;;13.54;88.13;99151.66;6243278;23;20043;-85
2022/09/16 05:06:59;;;;;;;0.20;0.20;;;;;;;13.09;87.13;99089.94;6213699;23;20001;-83
2022/09/16 05:09:25;;;;;;;0.20;0.10;;;;;;;12.97;86.62;99087.38;6216077;23;20024;-83
2022/09/16 05:11:50;;;;;;;0.10;0.10;;;;;;;13.62;86.77;99174.66;6242761;23;20035;-82
2022/09/16 05:14:17;;;;;;;0.17;0.10;;;;;;;13.52;86.40;99180.00;6192247;23;19992;-82
2022/09/16 05:16:43;;;;;;;0.50;0.20;;;;;;;13.56;86.91;99192.72;6242595;23;20000;-83
2022/09/16 05:19:12;;;;;;;0.85;0.30;;;;;;;13.52;86.85;99180.00;6192101;23;20003;-83
2022/09/16 05:21:38;;;;;;;0.50;0.20;;;;;;;12.28;85.82;98992.84;6186369;23;20016;-83
2022/09/16 05:24:09;;;;;;;1.25;0.20;;;;;;;12.33;86.53;98999.09;6180520;23;20049;-84
2022/09/16 05:26:38;;;;;;;2.28;0.30;;;;;;;13.57;86.77;99190.84;6180582;23;20025;-83
2022/09/16 05:29:07;;;;;;;0.85;0.20;;;;;;;13.55;86.93;99198.41;6182548;23;19993;-83
2022/09/16 05:31:35;;;;;;;0.45;0.10;;;;;;;13.58;86.97;99196.00;6183190;23;19996;-83
2022/09/16 05:34:03;;;;;;;0.22;0.20;;;;;;;13.57;86.70;99191.63;6182083;23;20069;-82
2022/09/16 05:36:31;;;;;;;0.10;0.10;;;;;;;13.43;87.36;99182.34;6181072;23;20022;-83
2022/09/16 05:38:57;;;;;;;1.08;0.20;;;;;;;13.60;86.60;99195.72;6181313;23;20013;-84
2022/09/16 05:46:33;;;;;;;0.20;0.13;;;;;;;12.06;86.68;98950.56;6164682;23;20936;-81
2022/09/16 05:48:59;;;;;;;0.45;0.20;;;;;;;13.77;86.44;99204.50;6211795;23;19997;-82
2022/09/16 05:51:25;;;;;;;0.20;0.20;;;;;;;13.85;85.53;99204.03;6187084;23;19997;-83
2022/09/16 05:53:52;;;;;;;1.45;0.20;;;;;;;13.86;85.76;99200.25;6212667;23;19999;-84
2022/09/16 06:01:32;;;;;;;0.10;0.10;;;;;;;12.45;84.59;98985.47;6190958;23;20024;-75
2022/09/16 06:04:00;;;;;;;0.45;0.10;;;;;;;13.90;84.44;99208.66;6211561;23;20011;-84
2022/09/16 06:06:32;;;;;;;0.40;0.20;;;;;;;13.89;85.07;99209.72;6186166;23;19997;-83
2022/09/16 06:09:02;;;;;;;0.57;0.13;;;;;;;13.83;86.08;99211.56;6185849;23;20009;-83
2022/09/16 06:11:28;;;;;;;1.38;0.20;;;;;;;13.71;86.56;99191.19;6212332;23;20009;-83
2022/09/16 06:13:55;;;;;;;0.52;0.20;;;;;;;13.93;86.69;99216.25;6187795;23;20016;-85
2022/09/16 06:16:22;;;;;;;0.35;0.20;;;;;;;13.95;86.25;99208.69;6214233;23;19993;-83
2022/09/16 06:18:47;;;;;;;0.60;0.20;;;;;;;14.16;85.15;99219.63;6187219;23;20048;-83
2022/09/16 06:21:12;;;;;;;0.10;0.10;;;;;;;14.19;84.32;99209.09;6187755;23;20096;-84
2022/09/16 06:23:39;;;;;;;2.90;0.20;;;;;;;14.34;83.43;99221.91;6163079;23;20024;-84
2022/09/16 06:26:08;;;;;;;0.35;0.22;;;;;;;14.36;83.06;99217.03;6188205;23;19993;-85
2022/09/16 06:28:36;;;;;;;0.47;0.25;;;;;;;14.38;82.96;99212.19;6212867;23;20000;-83
2022/09/16 06:31:07;;;;;;;1.05;0.30;;;;;;;14.47;82.69;99220.59;6186647;23;19999;-82
2022/09/16 06:33:34;;;;;;;0.30;0.20;;;;;;;14.27;81.25;99188.84;6186889;23;20068;-83
2022/09/16 06:36:11;;;;;;;0.50;0.32;;;;;;;14.35;81.92;99210.00;6212117;23;19989;-83
2022/09/16 06:38:37;;;;;;;1.10;0.70;;;;;;;14.52;81.04;99213.38;6186957;23;20006;-84
2022/09/16 06:41:05;;;;;;;0.30;0.25;;;;;;;14.52;79.80;99226.91;6213513;23;20024;-85
2022/09/16 06:43:31;;;;;;;0.30;0.20;;;;;;;14.55;80.85;99223.66;6213908;23;19993;-83
2022/09/16 06:45:58;;;;;;;0.20;0.15;;;;;;;14.65;80.36;99227.50;6188274;23;20004;-84
2022/09/16 06:51:03;;;;;;;0.25;0.20;;;;;;;12.77;80.39;98987.34;6208517;22;20090;-85
2022/09/16 06:53:29;;;;;;;0.20;0.17;;;;;;;12.69;80.83;99002.94;6242959;23;20384;-85
2022/09/16 06:55:59;;;;;;;0.40;0.10;;;;;;;12.69;79.57;98994.84;6216541;23;20009;-84
2022/09/16 06:58:25;;;;;;;0.98;0.15;;;;;;;13.17;79.74;99046.22;6243416;23;20004;-83
2022/09/16 07:00:50;;;;;;;1.27;0.10;;;;;;;14.44;80.04;99242.81;6243257;23;19996;-83
2022/09/16 07:03:17;;;;;;;0.20;0.13;;;;;;;14.36;79.86;99240.59;6242963;23;20371;-85
2022/09/16 07:05:43;;;;;;;0.38;0.20;;;;;;;14.15;79.99;99234.25;6217204;23;19988;-83
2022/09/16 07:08:08;;;;;;;0.30;0.10;;;;;;;14.31;80.18;99249.50;6192279;23;19993;-83
2022/09/16 07:10:33;;;;;;;0.57;0.10;;;;;;;14.30;79.92;99242.44;6192315;23;20012;-82
2022/09/16 07:12:59;;;;;;;0.68;0.20;;;;;;;14.33;80.14;99245.44;6192448;23;20045;-85
2022/09/16 07:15:24;;;;;;;0.20;0.20;;;;;;;14.38;81.40;99241.16;6242985;23;20013;-85
2022/09/16 07:17:54;;;;;;;0.30;0.17;;;;;;;14.47;80.84;99253.94;6217198;23;20005;-82
2022/09/16 07:30:41;;;;;;;1.30;0.20;;;;;;;13.66;80.32;99121.72;6204912;22;20005;-83
2022/09/16 07:33:07;;;;;;;0.20;0.13;;;;;;;14.62;81.25;99268.63;6217011;23;20009;-84
2022/09/16 07:35:33;;;;;;;1.55;0.20;;;;;;;13.62;79.81;99109.81;6216346;23;20051;-85
2022/09/16 07:37:59;;;;;;;0.20;0.20;;;;;;;14.49;80.58;99259.88;6217364;23;20000;-85
2022/09/16 07:45:35;;;;;;;0.45;0.22;;;;;;;13.50;78.37;99031.63;6220617;23;20081;-82
2022/09/16 07:48:00;;;;;;;0.10;0.10;;;;;;;15.26;77.56;99271.03;6241910;23;20008;-84
2022/09/16 07:50:25;;;;;;;1.45;0.20;;;;;;;15.11;78.26;99276.41;6216993;23;20008;-84
2022/09/16 07:52:55;;;;;;;0.32;0.17;;;;;;;14.66;79.22;99238.06;6243613;23;20016;-82
2022/09/16 07:55:20;;;;;;;0.55;0.20;;;;;;;14.47;79.53;99247.66;6217801;23;20040;-83
2022/09/16 07:57:45;;;;;;;0.40;0.30;;;;;;;14.74;79.79;99277.38;6243737;23;20028;-83
2022/09/16 08:00:11;;;;;;;0.80;0.20;;;;;;;14.94;78.68;99291.00;6217343;23;20000;-84
2022/09/16 08:02:37;;;;;;;0.10;0.10;;;;;;;14.86;79.09;99294.19;6192748;23;19997;-84
2022/09/16 08:05:03;;;;;;;0.15;0.10;;;;;;;13.34;79.68;99108.25;6188011;23;20015;-85
2022/09/16 08:07:29;;;;;;;0.10;0.10;;;;;;;12.90;80.19;99054.41;6182049;23;20017;-85
2022/09/16 08:09:54;;;;;;;0.10;0.10;;;;;;;13.00;80.98;99080.66;6182465;23;20099;-85
2022/09/16 08:17:30;;;;;;;1.35;0.10;;;;;;;13.49;80.56;99175.91;6197290;23;20031;-85
2022/09/16 08:19:56;;;;;;;0.77;0.17;;;;;;;13.16;79.50;99125.63;6215335;23;20012;-84
2022/09/16 08:22:22;;;;;;;0.82;0.10;;;;;;;13.08;80.02;99129.63;6242452;23;20040;-84
2022/09/16 08:24:48;;;;;;;1.48;0.20;;;;;;;12.99;80.43;99114.16;6242612;23;19996;-84
2022/09/16 09:28:52;;;;;;;0.65;0.20;;;;;;;15.11;79.16;99344.16;6193682;22;21179;-84
2022/09/16 09:31:50;;;;;;;1.48;0.20;;;;;;;15.14;79.53;99343.63;6093764;23;20009;-85
2022/09/16 09:47:18;;;;;;;0.90;0.15;;;;;;;15.32;76.38;99348.56;6202942;23;20009;-85
2022/09/16 09:49:52;;;;;;;0.10;0.10;;;;;;;15.02;75.84;99290.47;6213706;23;20020;-84
2022/09/16 09:55:05;;;;;;;0.20;0.17;;;;;;;13.84;75.70;99085.31;6216418;23;20012;-82
2022/09/16 09:57:49;;;;;;;0.77;0.20;;;;;;;14.02;75.22;99105.69;6243808;23;19997;-83
2022/09/16 10:00:20;;;;;;;0.43;0.10;;;;;;;14.30;75.60;99134.22;6217287;23;20024;-82
2022/09/16 10:02:46;;;;;;;0.20;0.20;;;;;;;15.33;75.11;99271.63;6216595;23;19996;-82
2022/09/16 10:08:00;;;;;;;0.65;0.28;;;;;;;14.37;73.61;99124.00;6217539;22;20005;-82
2022/09/16 10:10:30;;;;;;;0.17;0.13;;;;;;;15.79;74.08;99319.69;6243941;23;20019;-83
2022/09/16 10:13:06;;;;;;;0.10;0.10;;;;;;;15.93;73.90;99337.06;6217630;23;20020;-83
2022/09/16 10:15:33;;;;;;;0.55;0.20;;;;;;;16.07;71.71;99348.19;6244176;23;19992;-84
2022/09/16 10:18:00;;;;;;;0.10;0.10;;;;;;;16.06;71.31;99352.81;6218853;23;20015;-82
2022/09/16 10:20:34;;;;;;;0.10;0.10;;;;;;;16.17;72.07;99356.34;6217886;23;20000;-82
2022/09/16 10:23:04;;;;;;;1.47;0.10;;;;;;;16.17;71.57;99351.72;6217061;23;20013;-81
2022/09/16 10:25:31;;;;;;;0.28;0.20;;;;;;;16.22;71.83;99359.03;6242010;23;20289;-83
2022/09/16 10:28:00;;;;;;;0.73;0.20;;;;;;;16.17;74.45;99357.16;6217111;23;20031;-83
2022/09/16 10:30:32;;;;;;;1.92;0.20;;;;;;;16.20;75.29;99350.38;6243849;23;19992;-82
2022/09/16 10:33:10;;;;;;;0.25;0.20;;;;;;;16.19;76.64;99356.88;6243211;23;19997;-82
2022/09/16 10:35:39;;;;;;;0.40;0.20;;;;;;;16.06;77.62;99335.69;6217362;23;20007;-84
2022/09/16 10:38:20;;;;;;;0.57;0.20;;;;;;;16.01;78.11;99336.53;6216580;23;20039;-82
2022/09/16 10:41:00;;;;;;;0.70;0.20;;;;;;;16.21;77.53;99354.72;6216825;23;20004;-82
2022/09/16 10:43:27;;;;;;;0.30;0.20;;;;;;;16.14;77.16;99354.16;6216722;23;20012;-83
2022/09/16 10:45:53;;;;;;;1.58;0.20;;;;;;;16.07;76.66;99349.00;6242320;23;20005;-83
2022/09/16 10:48:23;;;;;;;0.88;0.15;;;;;;;16.17;77.65;99362.56;6216761;23;20026;-82
2022/09/16 10:51:24;;;;;;;0.65;0.25;;;;;;;16.16;77.83;99365.56;6242769;23;20056;-82
2022/09/16 10:53:57;;;;;;;2.05;0.30;;;;;;;16.14;76.21;99341.41;6242051;23;19989;-84
2022/09/16 10:56:29;;;;;;;0.65;0.30;;;;;;;16.31;76.89;99365.56;6216312;23;19997;-82
2022/09/16 10:59:05;;;;;;;1.13;0.25;;;;;;;16.50;76.86;99363.09;6217455;23;20016;-83
2022/09/16 11:01:39;;;;;;;0.40;0.20;;;;;;;16.45;77.11;99374.78;6242738;23;20016;-84
2022/09/16 11:04:30;;;;;;;1.10;0.25;;;;;;;16.36;77.41;99372.91;6242344;23;20015;-82
2022/09/16 11:07:17;;;;;;;0.70;0.20;;;;;;;16.36;78.90;99348.47;6216151;23;20008;-81
2022/09/16 11:10:04;;;;;;;2.13;0.20;;;;;;;16.36;77.35;99348.47;6242436;23;20048;-84
2022/09/16 11:12:32;;;;;;;0.85;0.30;;;;;;;16.38;77.63;99368.81;6241922;23;19985;-83
2022/09/16 11:15:13;;;;;;;1.33;0.30;;;;;;;16.38;76.58;99368.81;6242750;23;19993;-83
2022/09/16 11:17:44;;;;;;;1.27;0.20;;;;;;;16.52;77.36;99373.69;6242657;23;20016;-83
2022/09/16 11:20:49;;;;;;;1.02;0.20;;;;;;;16.56;75.99;99361.22;6242527;23;19999;-83
2022/09/16 11:23:30;;;;;;;0.65;0.15;;;;;;;16.42;75.25;99367.19;6217605;23;20001;-84
2022/09/16 11:26:04;;;;;;;0.38;0.20;;;;;;;16.63;77.62;99378.03;6243333;23;19992;-83
2022/09/16 11:28:51;;;;;;;1.42;0.30;;;;;;;16.75;74.91;99375.84;6217579;23;20012;-83
2022/09/16 11:31:21;;;;;;;0.80;0.40;;;;;;;16.79;76.22;99381.56;6242573;23;20009;-83
2022/09/16 11:34:18;;;;;;;1.13;0.30;;;;;;;16.71;74.09;99382.09;6242934;23;20008;-84
2022/09/16 11:37:04;;;;;;;2.00;0.55;;;;;;;16.78;75.92;99372.59;6216949;23;20039;-83
2022/09/16 11:39:56;;;;;;;0.55;0.20;;;;;;;16.74;75.00;99374.19;6243699;23;20047;-83
2022/09/16 11:42:38;;;;;;;3.33;0.35;;;;;;;16.75;75.57;99386.72;6242565;23;20056;-84
2022/09/16 11:45:29;;;;;;;2.25;0.52;;;;;;;16.56;78.32;99370.16;6242451;23;19985;-83
2022/09/16 11:48:38;;;;;;;2.30;0.45;;;;;;;16.45;80.42;99357.66;6216799;23;20000;-84
2022/09/16 11:51:45;;;;;;;0.98;0.30;;;;;;;16.45;78.04;99392.97;6217266;23;20063;-83
2022/09/16 11:54:29;;;;;;;1.83;0.40;;;;;;;16.44;79.27;99383.19;6126457;23;20058;-83
2022/09/16 11:56:58;;;;;;;1.65;0.28;;;;;;;16.41;78.14;99376.41;6235005;23;20027;-84
2022/09/16 11:59:44;;;;;;;1.30;0.30;;;;;;;16.57;78.42;99370.97;6242110;23;20004;-83
2022/09/16 12:07:30;;;;;;;1.15;0.32;;;;;;;16.88;76.89;99380.72;6239100;23;20008;-81
2022/09/16 12:10:18;;;;;;;1.90;0.47;;;;;;;15.27;78.46;99153.44;6239351;23;20012;-81
2022/09/16 12:12:49;;;;;;;0.60;0.20;;;;;;;15.84;75.80;99277.13;6215082;23;20035;-81
2022/09/16 12:15:18;;;;;;;0.73;0.20;;;;;;;16.56;77.51;99389.19;6241481;23;20009;-80
2022/09/16 12:17:52;;;;;;;2.13;0.30;;;;;;;15.01;77.02;99166.94;6236877;23;19985;-82
2022/09/16 12:20:40;;;;;;;1.50;0.30;;;;;;;16.61;77.80;99394.59;6209356;23;20004;-80
2022/09/16 12:23:23;;;;;;;2.65;0.30;;;;;;;16.79;79.01;99376.94;6237141;23;20000;-82
2022/09/16 12:26:00;;;;;;;2.17;0.30;;;;;;;16.95;77.63;99394.00;6238410;23;20020;-82
2022/09/16 12:28:30;;;;;;;1.70;0.43;;;;;;;16.86;78.97;99396.50;6215834;23;20004;-83
2022/09/16 12:34:03;;;;;;;2.67;0.40;;;;;;;15.25;80.05;99180.00;6204835;23;20013;-85
2022/09/16 12:36:35;;;;;;;0.20;0.20;;;;;;;16.66;75.38;99391.88;6179817;23;19997;-78
2022/09/16 12:39:00;;;;;;;0.88;0.30;;;;;;;16.66;78.91;99401.94;6184123;23;20005;-83
2022/09/16 12:41:48;;;;;;;1.25;0.20;;;;;;;16.63;77.50;99408.72;6209259;23;20013;-82
2022/09/16 12:44:28;;;;;;;1.05;0.52;;;;;;;16.66;79.23;99391.06;6209400;23;19997;-82
2022/09/16 12:47:10;;;;;;;1.58;0.30;;;;;;;16.61;77.57;99402.72;6208691;23;20016;-81
2022/09/16 12:49:45;;;;;;;0.93;0.30;;;;;;;16.67;77.97;99414.41;6209648;23;20068;-81
2022/09/16 12:52:35;;;;;;;6.18;0.43;;;;;;;16.68;79.33;99410.59;6177407;23;20041;-82
2022/09/16 12:55:12;;;;;;;2.28;0.45;;;;;;;16.71;80.21;99404.63;6182937;23;19996;-81
2022/09/16 12:57:50;;;;;;;0.90;0.20;;;;;;;16.69;77.06;99409.53;6181775;23;20001;-83
2022/09/16 13:00:26;;;;;;;1.30;0.30;;;;;;;15.20;78.12;99191.66;6216712;23;20016;-81
2022/09/16 13:03:13;;;;;;;1.70;0.22;;;;;;;15.57;76.71;99208.75;6213701;23;20011;-82
2022/09/16 13:05:39;;;;;;;2.05;0.40;;;;;;;16.16;76.21;99274.13;6216145;23;19997;-81
2022/09/16 13:08:23;;;;;;;3.20;0.40;;;;;;;16.85;74.32;99416.59;6214896;23;20019;-81
2022/09/16 13:11:05;;;;;;;1.90;0.73;;;;;;;15.31;76.26;99184.34;6211658;23;19996;-80
2022/09/16 13:13:41;;;;;;;0.93;0.30;;;;;;;16.56;76.19;99358.50;6238896;23;20233;-81
2022/09/16 13:16:08;;;;;;;1.95;0.40;;;;;;;15.44;74.68;99188.41;6210751;23;20083;-81
2022/09/16 13:18:40;;;;;;;1.52;0.30;;;;;;;16.12;74.89;99272.22;6241439;23;20036;-83
2022/09/16 13:21:12;;;;;;;1.00;0.35;;;;;;;17.01;77.63;99405.69;6240589;23;19997;-82
2022/09/16 13:23:45;;;;;;;0.50;0.20;;;;;;;17.19;73.98;99409.72;6215808;23;20004;-81
2022/09/16 13:26:10;;;;;;;2.53;0.52;;;;;;;17.33;72.68;99410.75;6213852;23;20056;-83
2022/09/16 13:28:40;;;;;;;0.43;0.17;;;;;;;17.17;70.67;99423.59;6213587;23;20311;-80
2022/09/16 13:31:16;;;;;;;2.17;0.32;;;;;;;17.24;71.45;99423.28;6234745;23;20395;-80
2022/09/16 13:34:02;;;;;;;1.63;0.32;;;;;;;16.92;73.17;99375.56;6231244;23;20000;-81
2022/09/16 13:36:31;;;;;;;1.38;0.35;;;;;;;17.01;72.58;99400.25;6213182;23;20020;-83
2022/09/16 13:39:00;;;;;;;0.60;0.28;;;;;;;17.32;71.57;99434.41;6241887;23;20044;-81
2022/09/16 13:41:40;;;;;;;0.80;0.30;;;;;;;17.42;70.08;99430.00;6244219;23;20031;-83
2022/09/16 13:44:37;;;;;;;0.50;0.22;;;;;;;17.32;68.79;99423.53;6218144;23;20080;-83
2022/09/16 13:47:09;;;;;;;2.53;0.25;;;;;;;17.43;71.31;99423.50;6217649;23;20047;-83
2022/09/16 13:50:00;;;;;;;1.35;0.38;;;;;;;17.48;72.21;99445.22;6218140;23;19988;-83
2022/09/16 13:52:29;;;;;;;1.00;0.30;;;;;;;17.30;72.16;99447.47;6244005;23;20054;-81
2022/09/16 13:54:58;;;;;;;1.52;0.40;;;;;;;17.19;72.86;99413.25;6244103;23;20037;-83
2022/09/16 13:57:59;;;;;;;2.50;0.30;;;;;;;17.27;72.68;99414.59;6217948;23;19997;-83
2022/09/16 14:00:49;;;;;;;2.50;0.43;;;;;;;17.16;73.40;99426.59;6211599;23;20013;-82
2022/09/16 14:03:34;;;;;;;1.55;0.20;;;;;;;16.78;72.64;99401.66;6212345;23;19989;-82
2022/09/16 14:06:18;;;;;;;1.13;0.30;;;;;;;17.07;72.15;99420.91;6210988;23;20019;-82
2022/09/16 14:09:01;;;;;;;0.63;0.20;;;;;;;17.13;71.66;99422.50;6212211;23;19993;-82
2022/09/16 14:11:52;;;;;;;1.08;0.30;;;;;;;17.07;72.64;99402.69;6208904;23;20223;-82
2022/09/16 14:14:21;;;;;;;2.05;0.25;;;;;;;17.13;73.49;99420.59;6211308;23;19997;-83
2022/09/16 14:16:47;;;;;;;1.42;0.20;;;;;;;17.33;72.45;99437.94;6211633;23;20005;-82
2022/09/16 14:19:19;;;;;;;1.38;0.30;;;;;;;17.23;74.43;99436.06;6211129;23;20005;-82
2022/09/16 14:21:45;;;;;;;2.97;0.50;;;;;;;17.03;75.57;99417.09;6211835;23;20004;-82
2022/09/16 14:24:18;;;;;;;1.63;0.30;;;;;;;16.96;72.52;99411.16;6211853;23;20009;-82
2022/09/16 14:26:55;;;;;;;1.30;0.20;;;;;;;17.12;73.11;99434.47;6211137;23;20472;-81
2022/09/16 14:29:23;;;;;;;0.63;0.20;;;;;;;17.04;73.41;99435.03;6211397;23;19997;-82
2022/09/16 14:31:52;;;;;;;1.63;0.32;;;;;;;16.97;73.60;99423.63;6210827;23;20009;-82
2022/09/16 14:34:37;;;;;;;2.13;0.30;;;;;;;17.07;73.08;99445.34;6210807;23;20041;-82
2022/09/16 14:37:04;;;;;;;3.95;0.30;;;;;;;17.06;73.38;99460.84;6209192;23;20001;-82
2022/09/16 14:39:31;;;;;;;1.75;0.40;;;;;;;16.86;73.69;99414.69;6209040;23;20031;-82
2022/09/16 14:42:02;;;;;;;2.40;0.30;;;;;;;17.00;74.89;99444.81;6210847;23;20069;-81
2022/09/16 14:44:36;;;;;;;1.63;0.40;;;;;;;17.00;73.52;99445.63;6210719;23;20013;-82
2022/09/16 14:47:15;;;;;;;0.98;0.32;;;;;;;17.01;71.28;99430.13;6209677;23;20012;-82
2022/09/16 14:49:43;;;;;;;1.67;0.20;;;;;;;17.01;70.14;99449.97;6209740;23;20001;-80
2022/09/16 14:52:18;;;;;;;2.50;0.30;;;;;;;17.05;73.90;99450.25;6213119;23;20023;-82
2022/09/16 14:54:44;;;;;;;1.52;0.30;;;;;;;17.08;77.26;99430.66;6213117;23;20005;-82
2022/09/16 14:57:24;;;;;;;2.35;0.40;;;;;;;17.07;77.91;99442.63;6211314;23;20019;-82
2022/09/16 14:59:53;;;;;;;1.77;0.35;;;;;;;17.14;76.36;99435.00;6212104;23;20001;-84
2022/09/16 15:02:22;;;;;;;3.60;0.30;;;;;;;17.19;72.20;99448.59;6240118;23;20004;-82
2022/09/16 15:05:11;;;;;;;0.28;0.20;;;;;;;17.24;74.71;99445.84;6241420;23;20090;-82
2022/09/16 15:07:41;;;;;;;2.00;0.30;;;;;;;17.13;72.20;99438.81;6216298;23;19992;-82
2022/09/16 15:10:27;;;;;;;1.00;0.35;;;;;;;16.90;73.69;99405.72;6236443;23;19996;-82
2022/09/16 15:13:03;;;;;;;2.60;0.47;;;;;;;17.08;73.97;99436.91;6233147;23;20020;-80
2022/09/16 15:15:31;;;;;;;3.53;0.43;;;;;;;16.12;72.07;99277.63;6196623;23;20299;-79
2022/09/16 15:18:04;;;;;;;1.23;0.38;;;;;;;17.01;72.04;99413.84;6226388;23;20001;-80
2022/09/16 15:20:32;;;;;;;1.30;0.20;;;;;;;17.03;70.14;99445.09;6217097;23;20020;-80
2022/09/16 15:23:01;;;;;;;4.20;0.40;;;;;;;17.13;71.83;99449.69;6199662;23;20004;-80
2022/09/16 15:25:34;;;;;;;3.22;0.32;;;;;;;17.26;70.99;99453.75;6227581;23;20356;-83
2022/09/16 15:28:05;;;;;;;3.95;0.32;;;;;;;17.30;70.80;99461.06;6232260;23;20008;-80
2022/09/16 15:30:30;;;;;;;3.70;0.60;;;;;;;17.29;69.60;99455.91;6225344;23;20019;-80
2022/09/16 15:32:56;;;;;;;1.40;0.35;;;;;;;17.29;71.81;99454.00;6224828;23;20300;-80
2022/09/16 15:35:23;;;;;;;1.63;0.35;;;;;;;17.26;71.28;99446.41;6203170;23;20063;-80
2022/09/16 15:37:53;;;;;;;1.60;0.30;;;;;;;17.31;69.24;99462.69;6221373;23;20001;-78
2022/09/16 15:40:24;;;;;;;1.55;0.30;;;;;;;17.33;71.28;99456.97;6233375;23;20314;-80
2022/09/16 15:43:22;;;;;;;2.92;0.40;;;;;;;17.14;69.03;99452.13;6225325;23;20055;-79
2022/09/16 15:46:03;;;;;;;1.00;0.22;;;;;;;16.92;70.76;99427.19;6196347;23;20004;-80
2022/09/16 15:48:33;;;;;;;2.33;0.30;;;;;;;16.96;69.61;99443.75;6224102;23;20023;-79
2022/09/16 15:51:08;;;;;;;2.00;0.38;;;;;;;17.02;71.77;99448.06;6202722;23;20007;-83
2022/09/16 15:53:40;;;;;;;1.45;0.30;;;;;;;17.04;72.13;99460.28;6202034;23;20399;-81
2022/09/16 15:56:27;;;;;;;4.20;0.70;;;;;;;17.14;72.28;99457.56;6226989;23;20000;-81
2022/09/16 15:58:58;;;;;;;2.35;0.38;;;;;;;17.13;71.70;99466.00;6232004;23;20003;-82
2022/09/16 16:01:26;;;;;;;1.30;0.30;;;;;;;17.20;72.36;99479.31;6196623;23;20035;-82
2022/09/16 16:04:03;;;;;;;2.08;0.60;;;;;;;17.24;72.31;99472.22;6192377;23;20005;-80
2022/09/16 16:06:54;;;;;;;2.45;0.38;;;;;;;17.19;71.91;99491.28;6195117;23;20000;-80
2022/09/16 16:09:28;;;;;;;2.15;0.30;;;;;;;17.09;71.08;99473.09;6198926;23;20081;-81
2022/09/16 16:12:15;;;;;;;2.90;0.50;;;;;;;17.13;71.74;99477.69;6202116;23;20048;-81
2022/09/16 16:14:42;;;;;;;1.38;0.30;;;;;;;17.02;71.85;99464.38;6205929;23;20005;-81
2022/09/16 16:17:20;;;;;;;1.55;0.30;;;;;;;15.91;71.36;99299.34;5099611;27;20391;-83
2022/09/16 16:19:48;;;;;;;1.98;0.32;;;;;;;15.57;72.97;99266.50;5096499;28;20036;-84
2022/09/16 16:22:15;;;;;;;1.88;0.30;;;;;;;16.14;72.69;99351.44;5109426;28;20047;-84
2022/09/16 16:24:41;;;;;;;1.52;0.50;;;;;;;16.57;71.35;99417.94;5110257;28;20020;-84
2022/09/16 16:27:07;;;;;;;0.98;0.22;;;;;;;16.33;68.17;99374.25;5099855;28;20087;-81
2022/09/16 16:29:32;;;;;;;2.15;0.25;;;;;;;16.57;71.48;99419.84;5098818;28;20025;-83
2022/09/16 16:31:58;;;;;;;2.83;0.50;;;;;;;17.07;70.10;99494.28;5097672;28;20100;-83
2022/09/16 16:34:23;;;;;;;2.08;0.30;;;;;;;17.06;70.28;99488.03;5093955;28;20035;-83
2022/09/16 16:36:48;;;;;;;2.88;0.30;;;;;;;17.04;69.33;99478.50;5096575;28;20032;-83
2022/09/16 16:39:14;;;;;;;2.33;0.35;;;;;;;17.02;71.28;99486.13;5110137;28;20055;-84
2022/09/16 16:41:39;;;;;;;1.48;0.50;;;;;;;17.00;70.91;99491.84;5109012;28;20099;-82
2022/09/16 16:44:04;;;;;;;1.20;0.30;;;;;;;17.04;72.79;99481.22;5108658;28;20035;-83
2022/09/16 16:46:30;;;;;;;2.53;0.40;;;;;;;16.89;73.88;99463.88;5105904;28;20017;-83
2022/09/16 16:48:55;;;;;;;0.85;0.20;;;;;;;17.02;75.24;99486.13;5115800;28;20037;-83
2022/09/16 16:51:20;;;;;;;1.55;0.47;;;;;;;16.99;74.24;99497.56;5095409;28;20036;-84
2022/09/16 16:53:48;;;;;;;2.67;0.30;;;;;;;16.99;74.11;99492.13;5106191;28;20476;-84
2022/09/16 16:56:13;;;;;;;3.42;0.47;;;;;;;16.88;74.57;99472.28;5103273;28;20040;-83
2022/09/16 16:58:40;;;;;;;1.92;0.57;;;;;;;16.93;74.47;99482.34;5089563;28;20063;-84
2022/09/16 17:01:15;;;;;;;1.98;0.30;;;;;;;16.99;74.08;99492.13;5092494;28;20033;-84
2022/09/16 17:03:41;;;;;;;6.63;0.77;;;;;;;16.99;75.25;99492.13;5112965;28;20000;-83
2022/09/16 17:06:07;;;;;;;1.27;0.30;;;;;;;16.83;76.07;99470.38;5091801;28;20055;-85
2022/09/16 17:08:34;;;;;;;3.20;0.40;;;;;;;16.98;76.48;99485.03;5110903;27;20016;-84
2022/09/16 17:11:10;;;;;;;1.77;0.35;;;;;;;17.02;77.49;99502.41;5108112;28;20031;-84
2022/09/16 17:13:38;;;;;;;1.98;0.40;;;;;;;16.51;79.32;99426.38;5277683;23;20065;-85
2022/09/16 17:16:04;;;;;;;3.47;0.65;;;;;;;16.49;78.61;99432.09;5088213;28;20114;-84
2022/09/16 17:21:07;;;;;;;3.15;0.60;;;;;;;16.22;79.73;99388.88;5712604;22;20083;-84
2022/09/16 17:26:09;;;;;;;1.13;0.20;;;;;;;16.48;78.31;99443.19;5213160;22;20058;-83
2022/09/16 17:44:06;;;;;;;4.30;0.50;;;;;;;16.81;79.71;99518.72;5011691;28;20118;-81
2022/09/16 17:46:32;;;;;;;5.35;0.45;;;;;;;16.79;78.16;99515.50;5015189;28;20029;-80
2022/09/16 17:49:21;;;;;;;1.83;0.40;;;;;;;16.63;78.56;99489.38;5014036;28;20023;-82
2022/09/16 17:51:46;;;;;;;1.67;0.32;;;;;;;16.47;79.28;99474.97;5014772;28;20490;-81
2022/09/16 17:54:12;;;;;;;2.63;0.30;;;;;;;16.81;79.87;99524.16;5013515;28;20032;-81
2022/09/16 17:56:38;;;;;;;1.00;0.30;;;;;;;16.69;80.63;99499.16;5016800;28;20023;-80
2022/09/16 17:59:04;;;;;;;2.22;0.52;;;;;;;16.74;80.29;99507.28;5015624;28;20025;-80
2022/09/16 18:01:30;;;;;;;2.22;0.40;;;;;;;16.73;80.68;99513.03;5022497;28;20034;-81
2022/09/16 18:03:56;;;;;;;4.78;0.43;;;;;;;16.52;82.30;99487.72;5029915;28;20051;-80
2022/09/16 18:06:24;;;;;;;3.58;0.38;;;;;;;16.82;85.24;99523.09;5013940;28;20412;-81
2022/09/16 18:08:51;;;;;;;2.17;0.38;;;;;;;16.63;86.75;99498.34;5033229;28;20015;-83
2022/09/16 19:41:18;;;;;;;2.58;0.22;;;;;;;14.22;77.24;99381.72;5607364;23;20139;-79
2022/09/16 19:49:22;;;;;;;1.13;0.22;;;;;;;14.28;76.63;99431.31;5468729;24;20038;-82
2022/09/16 19:54:19;;;;;;;1.25;0.17;;;;;;;13.96;76.94;99394.19;4827037;29;20058;-80
2022/09/16 19:56:45;;;;;;;0.30;0.10;;;;;;;15.36;76.10;99599.00;5042226;23;20046;-81
2022/09/16 21:19:55;;;;;;;0.10;0.10;;;;;;;13.75;72.12;99473.47;5676933;24;20024;-80
2022/09/16 21:22:52;;;;;;;1.40;0.20;;;;;;;14.83;72.63;99649.47;5794500;23;20024;31
2022/09/16 21:25:18;;;;;;;0.10;0.10;;;;;;;14.68;73.52;99630.38;4797750;29;20440;-82
2022/09/16 21:27:43;;;;;;;0.13;0.10;;;;;;;14.67;73.63;99634.13;4801600;29;20035;-79
2022/09/16 21:30:10;;;;;;;0.40;0.10;;;;;;;14.76;73.37;99667.81;4882916;24;20054;-82
2022/09/16 21:32:35;;;;;;;1.27;0.10;;;;;;;14.61;73.85;99636.00;4844029;29;20543;-79
2022/09/16 21:35:00;;;;;;;0.80;0.20;;;;;;;14.78;73.79;99666.50;4846631;29;20074;-81
2022/09/16 21:37:26;;;;;;;0.10;0.10;;;;;;;14.78;73.86;99666.50;4848580;29;20085;-80
2022/09/16 21:39:51;;;;;;;0.28;0.10;;;;;;;14.57;73.57;99643.00;4873998;29;20061;-81
2022/09/16 21:42:16;;;;;;;0.00;0.00;;;;;;;14.70;73.73;99666.13;4866337;29;20052;-81
2022/09/16 21:44:42;;;;;;;0.10;0.10;;;;;;;14.71;74.32;99670.50;4830826;29;20093;-80
2022/09/16 21:47:10;;;;;;;1.85;0.10;;;;;;;14.71;75.08;99667.78;4867500;29;20055;-80
2022/09/16 21:49:36;;;;;;;0.10;0.10;;;;;;;14.69;74.29;99667.22;4868481;29;20026;-82
2022/09/16 21:52:01;;;;;;;1.45;0.20;;;;;;;14.72;72.97;99688.38;4871407;29;20065;-81
2022/09/16 21:54:29;;;;;;;0.10;0.10;;;;;;;14.72;73.19;99689.19;4869524;29;20120;-80
2022/09/16 21:56:54;;;;;;;0.10;0.10;;;;;;;14.50;72.71;99645.91;4863436;29;20033;-80
2022/09/16 21:59:20;;;;;;;0.32;0.10;;;;;;;14.72;71.86;99677.53;4853825;29;20029;-81
2022/09/16 22:01:46;;;;;;;0.20;0.10;;;;;;;14.79;70.66;99678.97;4869416;29;20048;-82
2022/09/16 22:04:14;;;;;;;0.13;0.10;;;;;;;14.80;69.81;99675.19;4857975;29;20044;-82